createdAt,value
2023-01-09T00:01:36.243Z,3.90
2023-01-09T00:04:04.563Z,3.90
2023-01-09T00:06:31.505Z,3.90
2023-01-09T00:08:58.582Z,3.90
2023-01-09T00:11:26.519Z,3.90
2023-01-09T00:13:53.618Z,3.90
2023-01-09T00:16:20.845Z,3.90
2023-01-09T00:18:47.785Z,3.90
2023-01-09T00:21:16.032Z,3.90
2023-01-09T00:23:42.994Z,3.90
2023-01-09T00:26:18.726Z,3.90
2023-01-09T00:28:50.256Z,3.90
2023-01-09T00:31:18.874Z,3.80
2023-01-09T00:34:07.714Z,3.80
2023-01-09T00:36:34.584Z,3.80
2023-01-09T00:39:02.023Z,3.80
2023-01-09T00:41:44.536Z,3.80
2023-01-09T00:44:29.762Z,3.80
2023-01-09T00:47:07.776Z,3.90
2023-01-09T00:49:37.789Z,3.80
2023-01-09T00:52:10.162Z,3.90
2023-01-09T00:54:39.355Z,3.80
2023-01-09T00:57:09.530Z,3.80
2023-01-09T00:59:36.508Z,3.70
2023-01-09T01:02:03.521Z,3.70
2023-01-09T01:04:49.010Z,3.80
2023-01-09T01:07:34.461Z,3.80
2023-01-09T01:10:01.398Z,3.80
2023-01-09T01:12:28.243Z,3.80
2023-01-09T01:14:55.119Z,3.80
2023-01-09T01:17:22.055Z,3.80
2023-01-09T01:19:49.092Z,3.80
2023-01-09T01:22:16.211Z,3.80
2023-01-09T01:24:43.121Z,3.80
2023-01-09T01:27:10.033Z,3.80
2023-01-09T01:29:36.922Z,3.80
2023-01-09T01:32:04.205Z,3.80
2023-01-09T01:34:31.283Z,3.80
2023-01-09T01:36:58.239Z,3.80
2023-01-09T01:39:25.155Z,3.80
2023-01-09T01:41:52.041Z,3.80
2023-01-09T01:45:01.586Z,3.80
2023-01-09T01:48:04.009Z,3.70
2023-01-09T01:50:57.205Z,3.70
2023-01-09T01:54:01.379Z,3.70
2023-01-09T01:56:47.047Z,3.60
2023-01-09T01:59:24.056Z,3.60
2023-01-09T02:01:58.164Z,3.60
2023-01-09T02:04:26.787Z,3.60
2023-01-09T02:06:57.072Z,3.50
2023-01-09T02:09:25.554Z,3.60
2023-01-09T02:11:58.424Z,3.50
2023-01-09T02:14:31.982Z,3.50
2023-01-09T02:17:51.248Z,3.50
2023-01-09T02:21:10.317Z,3.60
2023-01-09T02:24:05.120Z,3.50
2023-01-09T02:26:57.419Z,3.50
2023-01-09T02:30:23.872Z,3.50
2023-01-09T02:33:55.700Z,3.50
2023-01-09T02:36:47.252Z,3.50
2023-01-09T02:39:58.708Z,3.50
2023-01-09T02:42:27.060Z,3.50
2023-01-09T02:44:54.135Z,3.50
2023-01-09T02:47:20.923Z,3.50
2023-01-09T02:50:02.337Z,3.50
2023-01-09T02:53:20.021Z,3.50
2023-01-09T02:56:44.397Z,3.50
2023-01-09T02:59:52.620Z,3.40
2023-01-09T03:03:07.516Z,3.40
2023-01-09T03:05:57.136Z,3.40
2023-01-09T03:08:40.466Z,3.40
2023-01-09T03:11:08.951Z,3.40
2023-01-09T03:14:03.038Z,3.30
2023-01-09T03:16:37.688Z,3.30
2023-01-09T03:19:19.093Z,3.30
2023-01-09T03:21:48.822Z,3.30
2023-01-09T03:24:15.803Z,3.30
2023-01-09T03:26:43.296Z,3.20
2023-01-09T03:29:10.732Z,3.20
2023-01-09T03:31:37.637Z,3.10
2023-01-09T03:34:05.015Z,3.00
2023-01-09T03:36:32.367Z,3.00
2023-01-09T03:38:59.298Z,2.90
2023-01-09T03:41:26.208Z,2.90
2023-01-09T03:43:53.088Z,2.80
2023-01-09T03:46:20.024Z,2.80
2023-01-09T03:48:46.885Z,2.80
2023-01-09T03:51:13.768Z,2.80
2023-01-09T03:53:41.639Z,2.80
2023-01-09T03:56:08.651Z,2.80
2023-01-09T03:58:35.543Z,2.80
2023-01-09T04:01:09.306Z,2.80
2023-01-09T04:03:36.451Z,2.90
2023-01-09T04:06:03.689Z,2.90
2023-01-09T04:08:30.732Z,2.90
2023-01-09T04:10:57.706Z,2.90
2023-01-09T04:13:24.696Z,2.90
2023-01-09T04:15:51.572Z,2.90
2023-01-09T04:18:18.504Z,2.90
2023-01-09T04:20:48.613Z,2.90
2023-01-09T04:23:16.657Z,2.90
2023-01-09T04:25:43.595Z,3.00
2023-01-09T04:28:10.487Z,3.00
2023-01-09T04:30:37.435Z,3.00
2023-01-09T04:33:04.350Z,3.00
2023-01-09T04:35:31.228Z,3.00
2023-01-09T04:37:58.572Z,3.10
2023-01-09T04:40:25.441Z,3.10
2023-01-09T04:42:52.309Z,3.10
2023-01-09T04:45:19.212Z,3.20
2023-01-09T04:47:46.097Z,3.20
2023-01-09T04:50:13.358Z,3.20
2023-01-09T04:52:40.774Z,3.30
2023-01-09T04:55:09.423Z,3.30
2023-01-09T04:57:36.937Z,3.40
2023-01-09T05:00:09.612Z,3.40
2023-01-09T05:02:38.147Z,3.40
2023-01-09T05:05:11.720Z,3.50
2023-01-09T05:07:39.379Z,3.50
2023-01-09T05:10:08.653Z,3.50
2023-01-09T05:12:36.276Z,3.60
2023-01-09T05:15:06.298Z,3.60
2023-01-09T05:17:33.179Z,3.60
2023-01-09T05:20:03.037Z,3.70
2023-01-09T05:22:29.882Z,3.70
2023-01-09T05:24:57.556Z,3.70
2023-01-09T05:27:27.129Z,3.80
2023-01-09T05:29:54.011Z,3.80
2023-01-09T05:32:20.869Z,3.80
2023-01-09T05:34:47.774Z,3.90
2023-01-09T05:37:14.663Z,3.90
2023-01-09T05:39:41.530Z,3.90
2023-01-09T05:42:08.446Z,3.90
2023-01-09T05:44:35.283Z,4.00
2023-01-09T05:47:03.006Z,4.00
2023-01-09T05:49:29.983Z,4.00
2023-01-09T05:51:56.856Z,4.00
2023-01-09T05:54:23.944Z,4.00
2023-01-09T05:56:50.793Z,4.10
2023-01-09T05:59:17.765Z,4.10
2023-01-09T06:01:44.731Z,4.30
2023-01-09T06:04:11.708Z,4.40
2023-01-09T06:06:39.757Z,4.50
2023-01-09T06:09:07.136Z,4.60
2023-01-09T06:11:35.649Z,4.70
2023-01-09T06:14:02.891Z,4.80
2023-01-09T06:16:29.837Z,4.90
2023-01-09T06:18:56.720Z,5.00
2023-01-09T06:21:24.596Z,5.10
2023-01-09T06:23:51.637Z,5.10
2023-01-09T06:26:18.500Z,5.20
2023-01-09T06:28:45.367Z,5.20
2023-01-09T06:31:13.157Z,5.30
2023-01-09T06:33:40.615Z,5.30
2023-01-09T06:36:08.557Z,5.30
2023-01-09T06:38:35.464Z,5.30
2023-01-09T06:41:02.370Z,5.40
2023-01-09T06:43:29.300Z,5.40
2023-01-09T06:45:56.984Z,5.40
2023-01-09T06:48:27.036Z,5.40
2023-01-09T06:50:54.934Z,5.40
2023-01-09T06:53:21.911Z,5.40
2023-01-09T06:55:49.215Z,5.40
2023-01-09T06:58:16.317Z,5.40
2023-01-09T07:00:43.438Z,5.40
2023-01-09T07:03:11.469Z,5.40
2023-01-09T07:05:42.792Z,5.40
2023-01-09T07:08:10.164Z,5.30
2023-01-09T07:10:37.231Z,5.20
2023-01-09T07:13:04.237Z,5.20
2023-01-09T07:15:31.165Z,5.10
2023-01-09T07:17:58.046Z,5.20
2023-01-09T07:20:24.949Z,5.00
2023-01-09T07:22:51.835Z,5.00
2023-01-09T07:25:18.805Z,4.90
2023-01-09T07:27:45.736Z,4.90
2023-01-09T07:30:14.130Z,4.90
2023-01-09T07:32:41.088Z,4.80
2023-01-09T07:35:10.686Z,4.80
2023-01-09T07:37:37.661Z,4.80
2023-01-09T07:40:05.361Z,4.70
2023-01-09T07:42:32.494Z,4.70
2023-01-09T07:44:59.428Z,4.70
2023-01-09T07:47:26.382Z,4.70
2023-01-09T07:49:53.239Z,4.70
2023-01-09T07:52:20.426Z,4.80
2023-01-09T07:54:47.313Z,4.80
2023-01-09T07:57:14.192Z,4.80
2023-01-09T07:59:41.080Z,4.80
2023-01-09T08:02:09.590Z,4.80
2023-01-09T08:04:36.514Z,4.80
2023-01-09T08:07:03.618Z,4.80
2023-01-09T08:09:31.007Z,4.80
2023-01-09T08:11:57.883Z,4.90
2023-01-09T08:14:24.794Z,4.90
2023-01-09T08:16:51.695Z,4.90
2023-01-09T08:19:18.865Z,4.90
2023-01-09T08:21:45.883Z,4.90
2023-01-09T08:24:12.813Z,4.90
2023-01-09T08:26:40.347Z,5.00
2023-01-09T08:29:07.205Z,5.00
2023-01-09T08:31:34.198Z,5.00
2023-01-09T08:34:01.248Z,5.00
2023-01-09T08:36:28.149Z,5.00
2023-01-09T08:38:55.600Z,5.10
2023-01-09T08:41:41.154Z,5.20
2023-01-09T08:44:26.620Z,5.20
2023-01-09T08:47:05.455Z,5.20
2023-01-09T08:49:42.344Z,5.20
2023-01-09T08:52:09.432Z,5.20
2023-01-09T08:54:38.794Z,5.20
2023-01-09T08:57:08.389Z,5.30
2023-01-09T08:59:35.519Z,5.30
2023-01-09T09:03:43.998Z,5.40
2023-01-09T09:06:10.856Z,5.50
2023-01-09T09:08:37.732Z,5.50
2023-01-09T09:11:04.766Z,5.60
2023-01-09T09:13:31.626Z,5.60
2023-01-09T09:15:58.588Z,5.60
2023-01-09T09:18:25.485Z,5.70
2023-01-09T09:20:52.339Z,5.70
2023-01-09T09:23:19.241Z,5.60
2023-01-09T09:25:46.633Z,5.60
2023-01-09T09:28:13.581Z,5.70
2023-01-09T09:30:40.532Z,5.80
2023-01-09T09:33:07.417Z,5.90
2023-01-09T09:35:34.663Z,5.90
2023-01-09T09:38:05.655Z,6.00
2023-01-09T09:41:34.140Z,5.90
2023-01-09T09:44:53.404Z,5.90
2023-01-09T09:47:48.921Z,5.90
2023-01-09T09:50:49.772Z,6.00
2023-01-09T09:53:59.714Z,6.00
2023-01-09T09:56:39.249Z,5.90
2023-01-09T09:59:26.755Z,5.70
2023-01-09T10:02:11.930Z,5.70
2023-01-09T10:04:51.159Z,5.70
2023-01-09T10:07:34.598Z,5.70
2023-01-09T10:10:10.595Z,5.70
2023-01-09T10:12:58.402Z,5.70
2023-01-09T10:15:56.748Z,5.70
2023-01-09T10:19:19.336Z,5.70
2023-01-09T10:23:10.353Z,5.80
2023-01-09T10:26:19.284Z,5.80
2023-01-09T10:29:35.995Z,5.90
2023-01-09T10:32:44.436Z,5.90
2023-01-09T10:36:17.168Z,6.00
2023-01-09T10:38:51.466Z,6.00
2023-01-09T10:41:38.176Z,6.10
2023-01-09T10:44:41.433Z,6.30
2023-01-09T10:47:32.131Z,6.40
2023-01-09T10:50:02.264Z,6.20
2023-01-09T10:52:41.947Z,6.00
2023-01-09T10:55:30.607Z,5.70
2023-01-09T10:58:22.456Z,5.60
2023-01-09T11:00:51.217Z,5.60
2023-01-09T11:03:23.182Z,5.70
2023-01-09T11:05:58.569Z,5.90
2023-01-09T11:08:41.965Z,6.00
2023-01-09T11:11:10.679Z,6.10
2023-01-09T11:13:40.839Z,6.00
2023-01-09T11:16:23.507Z,6.10
2023-01-09T11:18:57.554Z,6.00
2023-01-09T11:21:41.730Z,6.00
2023-01-09T11:24:26.331Z,6.00
2023-01-09T11:27:14.345Z,6.00
2023-01-09T11:29:43.347Z,6.00
2023-01-09T11:32:24.710Z,6.00
2023-01-09T11:34:51.617Z,6.00
2023-01-09T11:37:31.646Z,6.00
2023-01-09T11:40:01.407Z,6.00
2023-01-09T11:42:48.593Z,6.00
2023-01-09T11:45:27.301Z,6.10
2023-01-09T11:47:54.256Z,6.10
2023-01-09T11:50:26.888Z,6.10
2023-01-09T11:53:18.658Z,6.10
2023-01-09T11:55:56.709Z,6.10
2023-01-09T11:58:24.351Z,6.20
2023-01-09T12:01:31.661Z,6.10
2023-01-09T12:04:33.787Z,6.20
2023-01-09T12:08:02.868Z,6.20
2023-01-09T12:11:21.860Z,6.30
2023-01-09T12:14:51.164Z,6.40
2023-01-09T12:18:02.359Z,6.30
2023-01-09T12:20:39.808Z,6.10
2023-01-09T12:23:40.178Z,6.00
2023-01-09T12:26:33.009Z,6.00
2023-01-09T12:29:05.286Z,5.90
2023-01-09T12:32:46.063Z,5.90
2023-01-09T12:35:35.572Z,5.90
2023-01-09T12:38:39.771Z,5.90
2023-01-09T12:41:47.016Z,5.80
2023-01-09T12:44:53.044Z,5.80
2023-01-09T12:47:52.493Z,5.70
2023-01-09T12:50:37.500Z,5.70
2023-01-09T12:53:29.469Z,5.70
2023-01-09T12:56:07.680Z,5.80
2023-01-09T12:59:20.324Z,6.00
2023-01-09T13:01:51.424Z,6.00
2023-01-09T13:04:44.509Z,6.10
2023-01-09T13:07:47.035Z,6.20
2023-01-09T13:10:30.699Z,6.40
2023-01-09T13:13:06.371Z,6.80
2023-01-09T13:15:44.039Z,7.00
2023-01-09T13:18:30.419Z,7.10
2023-01-09T13:20:57.915Z,7.50
2023-01-09T13:23:52.435Z,8.00
2023-01-09T13:26:36.656Z,8.50
2023-01-09T13:29:22.236Z,9.00
2023-01-09T13:32:29.249Z,9.50
2023-01-09T13:34:57.566Z,9.50
2023-01-09T13:37:31.839Z,9.50
2023-01-09T13:40:19.693Z,9.20
2023-01-09T13:43:11.209Z,9.30
2023-01-09T13:45:40.209Z,9.00
2023-01-09T13:48:17.666Z,8.60
2023-01-09T13:50:47.739Z,8.40
2023-01-09T13:53:24.994Z,8.10
2023-01-09T13:55:58.524Z,7.90
2023-01-09T13:58:37.825Z,7.80
2023-01-09T14:01:41.368Z,8.00
2023-01-09T14:04:14.931Z,7.90
2023-01-09T14:06:44.805Z,7.80
2023-01-09T14:09:23.062Z,7.60
2023-01-09T14:12:06.753Z,7.30
2023-01-09T14:14:35.252Z,7.00
2023-01-09T14:17:03.286Z,6.90
2023-01-09T14:19:40.296Z,6.80
2023-01-09T14:22:35.139Z,6.70
2023-01-09T14:25:23.796Z,6.60
2023-01-09T14:27:59.796Z,6.50
2023-01-09T14:30:26.580Z,6.30
2023-01-09T14:33:18.839Z,6.20
2023-01-09T14:36:22.049Z,6.20
2023-01-09T14:39:00.228Z,6.10
2023-01-09T14:41:57.540Z,6.00
2023-01-09T14:44:45.755Z,5.80
2023-01-09T14:47:30.943Z,5.70
2023-01-09T14:50:27.581Z,5.60
2023-01-09T14:53:20.261Z,5.60
2023-01-09T14:56:00.747Z,5.50
2023-01-09T14:58:36.680Z,5.50
2023-01-09T15:01:27.055Z,5.50
2023-01-09T15:04:04.739Z,5.30
2023-01-09T15:06:42.736Z,5.20
2023-01-09T15:09:28.684Z,5.20
2023-01-09T15:12:05.376Z,5.20
2023-01-09T15:14:43.120Z,5.20
2023-01-09T15:17:33.709Z,5.20
2023-01-09T15:20:06.473Z,5.30
2023-01-09T15:22:37.462Z,5.30
2023-01-09T15:25:39.638Z,5.40
2023-01-09T15:28:34.815Z,5.40
2023-01-09T15:31:13.161Z,5.40
2023-01-09T15:33:44.609Z,5.40
2023-01-09T15:36:25.388Z,5.40
2023-01-09T15:38:54.603Z,5.30
2023-01-09T15:41:48.474Z,5.20
2023-01-09T15:44:26.152Z,5.10
2023-01-09T15:47:00.707Z,4.90
2023-01-09T15:49:28.243Z,4.90
2023-01-09T15:51:56.258Z,4.60
2023-01-09T15:54:33.379Z,4.50
2023-01-09T15:57:25.216Z,4.30
2023-01-09T16:00:17.332Z,4.20
2023-01-09T16:03:06.525Z,4.10
2023-01-09T16:05:33.705Z,4.10
2023-01-09T16:08:02.052Z,4.00
2023-01-09T16:10:38.133Z,4.00
2023-01-09T16:13:06.382Z,3.90
2023-01-09T16:15:35.315Z,3.80
2023-01-09T16:18:17.404Z,3.80
2023-01-09T16:20:45.739Z,3.80
2023-01-09T16:23:31.089Z,3.80
2023-01-09T16:26:19.756Z,3.90
2023-01-09T16:28:46.693Z,3.90
2023-01-09T16:31:25.514Z,3.90
2023-01-09T16:34:06.223Z,4.00
2023-01-09T16:36:37.264Z,4.00
2023-01-09T16:39:05.038Z,4.10
2023-01-09T16:41:51.054Z,4.10
2023-01-09T16:44:19.174Z,4.10
2023-01-09T16:46:46.446Z,4.10
2023-01-09T16:49:24.301Z,4.10
2023-01-09T16:51:52.825Z,4.20
2023-01-09T16:54:21.085Z,4.10
2023-01-09T16:56:54.189Z,4.20
2023-01-09T16:59:28.229Z,4.10
2023-01-09T17:01:55.705Z,4.10
2023-01-09T17:04:25.983Z,4.20
2023-01-09T17:06:52.862Z,4.10
2023-01-09T17:09:23.151Z,4.10
2023-01-09T17:11:51.132Z,4.10
2023-01-09T17:14:18.019Z,4.10
2023-01-09T17:16:48.062Z,4.10
2023-01-09T17:19:20.815Z,4.10
2023-01-09T17:21:47.967Z,4.10
2023-01-09T17:24:34.269Z,4.00
2023-01-09T17:27:21.720Z,4.00
2023-01-09T17:29:48.764Z,4.00
2023-01-09T17:32:19.351Z,3.90
2023-01-09T17:34:46.422Z,3.80
2023-01-09T17:37:19.332Z,3.80
2023-01-09T17:39:46.557Z,3.80
2023-01-09T17:42:13.442Z,3.80
2023-01-09T17:44:40.488Z,3.80
2023-01-09T17:47:15.362Z,3.80
2023-01-09T17:49:42.958Z,3.80
2023-01-09T17:52:10.254Z,3.80
2023-01-09T17:54:37.182Z,3.80
2023-01-09T17:57:04.496Z,3.80
2023-01-09T17:59:31.660Z,3.70
2023-01-09T18:01:58.961Z,3.70
2023-01-09T18:04:25.919Z,3.70
2023-01-09T18:06:54.463Z,3.70
2023-01-09T18:09:21.430Z,3.70
2023-01-09T18:11:48.300Z,3.70
2023-01-09T18:14:16.953Z,3.70
2023-01-09T18:16:45.095Z,3.70
2023-01-09T18:19:12.171Z,3.70
2023-01-09T18:21:39.115Z,3.60
2023-01-09T18:24:06.730Z,3.60
2023-01-09T18:26:33.622Z,3.60
2023-01-09T18:29:01.746Z,3.60
2023-01-09T18:31:30.496Z,3.60
2023-01-09T18:34:02.152Z,3.60
2023-01-09T18:36:29.791Z,3.50
2023-01-09T18:39:04.786Z,3.40
2023-01-09T18:41:32.024Z,3.20
2023-01-09T18:44:01.592Z,3.10
2023-01-09T18:46:32.737Z,3.20
2023-01-09T18:49:04.599Z,3.20
2023-01-09T18:51:35.632Z,3.30
2023-01-09T18:54:02.680Z,3.30
2023-01-09T18:56:29.739Z,3.40
2023-01-09T18:58:58.065Z,3.40
2023-01-09T19:01:29.828Z,3.40
2023-01-09T19:03:59.633Z,3.30
2023-01-09T19:06:30.842Z,3.30
2023-01-09T19:09:01.143Z,3.30
2023-01-09T19:11:28.073Z,3.20
2023-01-09T19:13:55.130Z,3.20
2023-01-09T19:16:22.124Z,3.20
2023-01-09T19:18:49.160Z,3.20
2023-01-09T19:21:21.932Z,3.20
2023-01-09T19:23:49.932Z,3.30
2023-01-09T19:26:24.527Z,3.30
2023-01-09T19:28:57.408Z,3.30
2023-01-09T19:31:28.973Z,3.30
2023-01-09T19:33:57.678Z,3.40
2023-01-09T19:36:25.526Z,3.40
2023-01-09T19:39:00.998Z,3.40
2023-01-09T19:41:29.504Z,3.40
2023-01-09T19:43:58.637Z,3.40
2023-01-09T19:46:26.456Z,3.40
2023-01-09T19:48:54.240Z,3.20
2023-01-09T19:51:22.665Z,3.00
2023-01-09T19:56:31.160Z,2.70
2023-01-09T19:59:02.740Z,2.60
2023-01-09T20:01:37.242Z,2.60
2023-01-09T20:04:10.157Z,2.50
2023-01-09T20:06:43.794Z,2.40
2023-01-09T20:09:12.249Z,2.30
2023-01-09T20:11:41.294Z,2.20
2023-01-09T20:14:16.319Z,2.30
2023-01-09T20:16:43.860Z,2.40
2023-01-09T20:19:14.008Z,2.70
2023-01-09T20:21:42.576Z,2.80
2023-01-09T20:24:16.502Z,2.90
2023-01-09T20:26:45.972Z,2.90
2023-01-09T20:29:13.036Z,3.00
2023-01-09T20:31:40.009Z,3.10
2023-01-09T20:34:06.982Z,3.10
2023-01-09T20:36:34.746Z,3.10
2023-01-09T20:39:07.005Z,3.10
2023-01-09T20:41:34.615Z,3.20
2023-01-09T20:44:07.068Z,3.10
2023-01-09T20:46:40.325Z,3.20
2023-01-09T20:49:13.808Z,3.20
2023-01-09T20:51:51.127Z,3.20
2023-01-09T20:54:21.415Z,3.20
2023-01-09T20:56:48.655Z,3.20
2023-01-09T20:59:22.616Z,3.20
2023-01-09T21:01:50.766Z,3.30
2023-01-09T21:04:18.237Z,3.30
2023-01-09T21:06:45.202Z,3.40
2023-01-09T21:09:12.082Z,3.40
2023-01-09T21:11:39.024Z,3.50
2023-01-09T21:14:05.987Z,3.50
2023-01-09T21:16:33.073Z,3.60
2023-01-09T21:19:00.101Z,3.60
2023-01-09T21:21:27.751Z,3.60
2023-01-09T21:24:00.461Z,3.70
2023-01-09T21:26:30.279Z,3.70
2023-01-09T21:29:01.438Z,3.70
2023-01-09T21:31:35.150Z,3.80
2023-01-09T21:34:07.356Z,3.70
2023-01-09T21:36:35.944Z,3.70
2023-01-09T21:39:08.165Z,3.80
2023-01-09T21:41:54.422Z,3.70
2023-01-09T21:44:40.054Z,3.70
2023-01-09T21:47:06.958Z,3.70
2023-01-09T21:49:35.835Z,3.70
2023-01-09T21:52:04.510Z,3.70
2023-01-09T21:54:32.696Z,3.60
2023-01-09T21:56:59.725Z,3.70
2023-01-09T21:59:27.022Z,3.60
2023-01-09T22:01:53.984Z,3.60
2023-01-09T22:04:25.931Z,3.60
2023-01-09T22:06:52.826Z,3.60
2023-01-09T22:09:20.238Z,3.60
2023-01-09T22:11:47.764Z,3.60
2023-01-09T22:14:19.059Z,3.60
2023-01-09T22:16:46.898Z,3.60
2023-01-09T22:19:17.980Z,3.60
2023-01-09T22:21:45.634Z,3.60
2023-01-09T22:24:19.041Z,3.60
2023-01-09T22:26:46.596Z,3.60
2023-01-09T22:29:15.928Z,3.60
2023-01-09T22:31:43.171Z,3.60
2023-01-09T22:34:17.589Z,3.60
2023-01-09T22:36:46.723Z,3.60
2023-01-09T22:39:17.736Z,3.70
2023-01-09T22:41:49.861Z,3.70
2023-01-09T22:44:16.748Z,3.60
2023-01-09T22:46:43.614Z,3.60
2023-01-09T22:49:12.184Z,3.60
2023-01-09T22:51:39.153Z,3.60
2023-01-09T22:54:06.219Z,3.60
2023-01-09T22:56:33.246Z,3.50
2023-01-09T22:59:00.854Z,3.50
2023-01-09T23:01:28.163Z,3.50
2023-01-09T23:03:55.052Z,3.50
2023-01-09T23:06:23.539Z,3.50
2023-01-09T23:08:52.692Z,3.50
2023-01-09T23:11:47.917Z,3.50
2023-01-09T23:14:14.844Z,3.50
2023-01-09T23:16:42.012Z,3.50
2023-01-09T23:19:10.286Z,3.40
2023-01-09T23:21:37.499Z,3.40
2023-01-09T23:24:06.849Z,3.40
2023-01-09T23:26:35.370Z,3.50
2023-01-09T23:29:02.759Z,3.40
2023-01-09T23:31:29.686Z,3.40
2023-01-09T23:33:56.567Z,3.30
2023-01-09T23:36:23.482Z,3.30
2023-01-09T23:38:50.393Z,3.30
2023-01-09T23:41:17.918Z,3.30
2023-01-09T23:43:45.880Z,3.30
2023-01-09T23:46:12.790Z,3.30
2023-01-09T23:48:40.127Z,3.30
2023-01-09T23:51:07.146Z,3.30
2023-01-09T23:53:34.041Z,3.20
2023-01-09T23:56:01.409Z,3.20
2023-01-09T23:58:28.298Z,3.30
